createdAt,value
2022-10-07T00:02:15.076Z,13.00
2022-10-07T00:05:02.998Z,11.67
2022-10-07T01:01:29.112Z,25.57
2022-10-07T02:24:29.083Z,10.27
2022-10-07T02:27:20.924Z,9.90
2022-10-07T03:15:32.913Z,10.87
2022-10-07T03:18:29.769Z,10.10
2022-10-07T03:29:59.583Z,10.83
2022-10-07T03:32:47.744Z,12.10
2022-10-07T03:35:35.575Z,11.73
2022-10-07T03:38:23.789Z,12.00
2022-10-07T03:41:11.697Z,13.07
2022-10-07T03:44:01.608Z,12.60
2022-10-07T03:46:51.334Z,11.97
2022-10-07T03:49:41.652Z,11.67
2022-10-07T03:52:30.466Z,12.80
2022-10-07T03:55:18.186Z,12.03
2022-10-07T03:58:05.844Z,13.33
2022-10-07T04:01:05.861Z,12.27
2022-10-07T04:03:54.790Z,12.73
2022-10-07T04:06:43.801Z,13.03
2022-10-07T04:09:34.119Z,13.20
2022-10-07T04:12:22.674Z,14.70
2022-10-07T04:15:13.789Z,12.83
2022-10-07T04:18:04.939Z,12.63
2022-10-07T04:20:52.850Z,13.27
2022-10-07T04:23:42.885Z,13.57
2022-10-07T04:26:30.526Z,14.13
2022-10-07T04:29:18.315Z,15.33
2022-10-07T04:32:08.030Z,14.43
2022-10-07T04:34:57.385Z,16.13
2022-10-07T04:37:45.606Z,13.53
2022-10-07T04:40:33.299Z,18.73
2022-10-07T04:43:27.410Z,14.40
2022-10-07T04:46:22.668Z,16.60
2022-10-07T04:49:16.133Z,14.90
2022-10-07T04:52:05.058Z,15.57
2022-10-07T04:54:57.854Z,16.07
2022-10-07T04:57:45.781Z,15.40
2022-10-07T05:00:34.636Z,15.53
2022-10-07T05:03:24.542Z,17.13
2022-10-07T05:06:12.393Z,16.33
2022-10-07T05:09:03.319Z,19.47
2022-10-07T05:11:55.685Z,19.23
2022-10-07T05:14:44.531Z,17.20
2022-10-07T05:17:33.940Z,19.67
2022-10-07T05:20:21.681Z,19.40
2022-10-07T05:23:09.633Z,20.77
2022-10-07T05:26:04.938Z,20.40
2022-10-07T05:28:54.928Z,17.73
2022-10-07T05:31:49.267Z,20.00
2022-10-07T05:34:39.861Z,18.20
2022-10-07T06:39:47.644Z,26.80
2022-10-07T06:42:35.530Z,22.77
2022-10-07T06:45:43.703Z,27.93
2022-10-07T06:48:34.568Z,28.37
2022-10-07T06:51:24.835Z,32.77
2022-10-07T06:54:13.549Z,34.07
2022-10-07T06:57:01.265Z,39.57
2022-10-07T06:59:50.039Z,33.53
2022-10-07T07:02:38.653Z,31.83
2022-10-07T07:05:26.816Z,38.40
2022-10-07T07:08:17.400Z,35.43
2022-10-07T07:11:26.583Z,36.63
2022-10-07T07:14:15.854Z,28.93
2022-10-07T07:17:09.806Z,31.60
2022-10-07T07:19:58.121Z,34.53
2022-10-07T07:22:46.261Z,32.63
2022-10-07T07:25:39.585Z,30.30
2022-10-07T07:28:27.350Z,40.17
2022-10-07T07:31:17.794Z,40.90
2022-10-07T07:42:38.884Z,45.33
2022-10-07T07:45:27.143Z,44.97
2022-10-07T07:48:15.351Z,49.67
2022-10-07T07:51:06.972Z,41.53
2022-10-07T07:53:54.827Z,36.22
2022-10-07T07:56:43.530Z,35.63
2022-10-07T07:59:33.372Z,31.38
2022-10-07T08:02:21.853Z,30.95
2022-10-07T08:05:10.928Z,30.23
2022-10-07T08:07:58.681Z,29.98
2022-10-07T08:10:51.761Z,26.70
2022-10-07T08:13:41.402Z,24.83
2022-10-07T08:16:32.979Z,25.88
2022-10-07T08:22:09.935Z,22.40
2022-10-07T08:25:00.107Z,21.88
2022-10-07T08:27:48.630Z,19.30
2022-10-07T08:30:37.155Z,17.02
2022-10-07T08:33:26.470Z,15.85
2022-10-07T08:36:15.940Z,16.75
2022-10-07T08:39:05.883Z,13.35
2022-10-07T08:42:04.271Z,13.38
2022-10-07T08:44:52.557Z,13.00
2022-10-07T08:47:43.908Z,10.68
2022-10-07T08:50:43.437Z,11.43
2022-10-07T08:53:34.500Z,11.95
2022-10-07T08:56:25.045Z,12.15
2022-10-07T09:33:41.067Z,12.15
2022-10-07T09:36:28.674Z,10.13
2022-10-07T09:42:27.116Z,9.93
2022-10-07T09:45:22.447Z,9.73
2022-10-07T09:48:20.364Z,8.55
2022-10-07T09:51:18.781Z,9.27
2022-10-07T09:54:09.794Z,9.88
2022-10-07T09:56:59.590Z,10.70
2022-10-07T09:59:49.114Z,9.75
2022-10-07T10:02:37.192Z,10.13
2022-10-07T10:05:28.780Z,10.75
2022-10-07T10:08:24.801Z,8.95
2022-10-07T10:11:28.285Z,9.10
2022-10-07T10:14:34.916Z,9.95
2022-10-07T10:17:28.789Z,7.47
2022-10-07T10:20:29.760Z,8.20
2022-10-07T10:23:30.955Z,7.45
2022-10-07T10:26:44.608Z,6.32
2022-10-07T10:29:54.725Z,7.07
2022-10-07T10:33:07.233Z,6.03
2022-10-07T10:36:03.827Z,6.00
2022-10-07T10:39:01.550Z,8.23
2022-10-07T10:41:54.612Z,7.28
2022-10-07T10:45:08.101Z,7.75
2022-10-07T10:48:15.896Z,5.75
2022-10-07T10:51:21.384Z,9.20
2022-10-07T10:54:25.108Z,7.82
2022-10-07T10:57:22.950Z,5.40
2022-10-07T11:00:14.448Z,7.40
2022-10-07T11:03:45.647Z,7.32
2022-10-07T11:06:37.046Z,9.95
2022-10-07T11:09:33.088Z,6.05
2022-10-07T11:12:26.260Z,6.47
2022-10-07T11:15:21.234Z,10.52
2022-10-07T11:18:21.842Z,6.30
2022-10-07T11:21:17.223Z,6.00
2022-10-07T11:24:13.821Z,6.97
2022-10-07T11:27:08.990Z,8.18
2022-10-07T11:30:03.966Z,8.40
2022-10-07T11:32:57.289Z,10.38
2022-10-07T11:35:50.415Z,7.00
2022-10-07T11:38:40.672Z,7.13
2022-10-07T11:41:33.141Z,6.40
2022-10-07T11:44:27.885Z,11.27
2022-10-07T11:47:20.843Z,7.13
2022-10-07T11:50:14.279Z,5.40
2022-10-07T11:53:06.040Z,7.07
2022-10-07T11:56:02.517Z,5.35
2022-10-07T11:59:00.465Z,5.80
2022-10-07T12:01:53.648Z,6.78
2022-10-07T12:04:41.240Z,6.85
2022-10-07T12:07:41.620Z,7.90
2022-10-07T12:10:33.825Z,7.35
2022-10-07T12:13:41.005Z,8.68
2022-10-07T12:16:55.606Z,6.00
2022-10-07T12:19:43.661Z,7.18
2022-10-07T12:22:31.133Z,6.22
2022-10-07T12:25:33.199Z,6.80
2022-10-07T12:28:25.803Z,5.65
2022-10-07T12:31:47.427Z,5.53
2022-10-07T12:34:38.021Z,6.15
2022-10-07T12:37:50.149Z,4.82
2022-10-07T12:40:39.027Z,7.75
2022-10-07T12:43:34.538Z,6.10
2022-10-07T12:46:24.762Z,7.05
2022-10-07T12:49:24.312Z,8.93
2022-10-07T12:52:15.297Z,5.75
2022-10-07T12:55:07.366Z,5.53
2022-10-07T12:58:17.231Z,6.38
2022-10-07T13:01:19.338Z,5.25
2022-10-07T13:04:29.673Z,6.53
2022-10-07T13:07:59.614Z,4.80
2022-10-07T13:11:28.504Z,5.78
2022-10-07T13:14:22.083Z,9.82
2022-10-07T13:17:26.623Z,4.60
2022-10-07T13:20:48.675Z,5.40
2022-10-07T13:23:37.832Z,5.43
2022-10-07T13:26:27.580Z,4.85
2022-10-07T13:29:24.528Z,5.70
2022-10-07T13:32:16.367Z,7.75
2022-10-07T13:35:29.983Z,5.82
2022-10-07T13:38:25.966Z,6.10
2022-10-07T13:41:21.577Z,5.70
2022-10-07T13:44:11.495Z,7.65
2022-10-07T13:47:01.424Z,7.97
2022-10-07T13:49:54.160Z,6.15
2022-10-07T13:52:47.192Z,7.20
2022-10-07T13:55:36.669Z,5.85
2022-10-07T13:58:24.520Z,6.25
2022-10-07T14:01:13.507Z,5.28
2022-10-07T14:04:18.711Z,5.97
2022-10-07T14:07:16.916Z,6.80
2022-10-07T14:10:11.157Z,5.38
2022-10-07T14:13:03.207Z,6.93
2022-10-07T14:15:55.359Z,5.25
2022-10-07T14:18:44.984Z,5.20
2022-10-07T14:21:40.595Z,5.63
2022-10-07T14:24:28.272Z,5.68
2022-10-07T14:27:52.601Z,5.00
2022-10-07T14:30:59.602Z,5.35
2022-10-07T14:34:08.836Z,5.97
2022-10-07T14:37:04.432Z,5.32
2022-10-07T14:39:53.344Z,4.82
2022-10-07T14:42:43.128Z,6.35
2022-10-07T14:45:31.167Z,4.60
2022-10-07T14:48:18.925Z,5.65
2022-10-07T14:51:07.446Z,6.60
2022-10-07T14:53:58.084Z,5.57
2022-10-07T14:56:45.525Z,6.40
2022-10-07T14:59:35.546Z,5.70
2022-10-07T15:02:23.465Z,7.68
2022-10-07T15:05:12.751Z,5.90
2022-10-07T15:08:01.192Z,6.20
2022-10-07T15:10:48.804Z,9.10
2022-10-07T15:13:36.355Z,6.28
2022-10-07T15:16:28.919Z,7.63
2022-10-07T15:19:16.856Z,7.03
2022-10-07T15:22:04.404Z,6.13
2022-10-07T15:24:52.297Z,6.50
2022-10-07T15:27:40.263Z,6.68
2022-10-07T15:30:28.353Z,7.10
2022-10-07T15:33:17.418Z,6.07
2022-10-07T15:36:05.566Z,6.47
2022-10-07T15:38:53.338Z,8.02
2022-10-07T15:41:42.863Z,7.32
2022-10-07T15:44:30.434Z,8.00
2022-10-07T15:47:18.990Z,7.65
2022-10-07T15:50:08.860Z,8.35
2022-10-07T15:52:56.362Z,10.18
2022-10-07T16:01:28.315Z,7.28
2022-10-07T16:04:16.123Z,6.90
2022-10-07T16:07:05.552Z,8.13
2022-10-07T16:09:53.608Z,7.78
2022-10-07T16:12:41.100Z,6.70
2022-10-07T16:15:28.780Z,6.75
2022-10-07T16:18:16.471Z,7.53
2022-10-07T16:21:06.122Z,8.15
2022-10-07T16:23:57.876Z,7.97
2022-10-07T16:26:47.317Z,9.05
2022-10-07T16:29:52.777Z,8.95
2022-10-07T16:32:40.395Z,6.72
2022-10-07T16:35:31.384Z,8.25
2022-10-07T16:38:21.306Z,6.05
2022-10-07T16:41:10.610Z,6.03
2022-10-07T16:43:58.713Z,6.47
2022-10-07T16:46:47.217Z,6.00
2022-10-07T16:49:36.519Z,6.13
2022-10-07T16:52:25.618Z,8.40
2022-10-07T16:58:02.200Z,8.88
2022-10-07T17:06:28.104Z,9.88
2022-10-07T17:17:43.995Z,7.38
2022-10-07T17:20:31.969Z,12.95
2022-10-07T17:23:21.263Z,8.73
2022-10-07T17:26:09.642Z,10.88
2022-10-07T17:29:00.446Z,11.77
2022-10-07T17:31:50.851Z,13.38
2022-10-07T17:34:44.511Z,13.50
2022-10-07T17:37:34.336Z,10.25
2022-10-07T17:40:22.088Z,13.32
2022-10-07T17:43:10.060Z,14.98
2022-10-07T17:46:01.636Z,11.23
2022-10-07T17:48:52.718Z,14.63
2022-10-07T17:51:42.591Z,12.93
2022-10-07T17:54:30.532Z,13.80
2022-10-07T17:57:18.494Z,16.25
2022-10-07T18:00:07.666Z,19.77
2022-10-07T18:03:07.503Z,19.63
2022-10-07T18:05:56.855Z,15.32
2022-10-07T18:08:45.029Z,16.65
2022-10-07T18:11:50.592Z,16.48
2022-10-07T18:14:55.918Z,26.27
2022-10-07T18:17:45.544Z,20.92
2022-10-07T18:20:38.319Z,17.45
2022-10-07T18:23:29.437Z,18.65
2022-10-07T18:26:17.396Z,19.92
2022-10-07T18:29:05.358Z,20.42
2022-10-07T18:31:53.100Z,28.58
2022-10-07T18:34:40.986Z,22.92
2022-10-07T18:37:28.822Z,22.40
2022-10-07T18:40:17.951Z,26.27
2022-10-07T18:43:05.517Z,22.73
2022-10-07T18:45:59.691Z,22.45
2022-10-07T18:48:48.915Z,20.63
2022-10-07T18:51:36.527Z,20.50
2022-10-07T18:54:24.258Z,22.90
2022-10-07T18:57:14.008Z,28.63
2022-10-07T19:00:01.914Z,26.23
2022-10-07T19:02:51.466Z,28.63
2022-10-07T19:42:28.689Z,24.85
2022-10-07T19:48:06.362Z,21.17
2022-10-07T19:51:00.638Z,19.33
2022-10-07T19:53:48.974Z,19.02
2022-10-07T19:56:37.421Z,20.20
2022-10-07T19:59:25.335Z,19.17
2022-10-07T20:02:15.005Z,24.83
2022-10-07T20:05:06.055Z,21.40
2022-10-07T20:07:53.537Z,19.75
2022-10-07T20:10:41.577Z,25.02
2022-10-07T20:13:29.735Z,22.70
2022-10-07T20:16:19.970Z,27.98
2022-10-07T20:19:12.203Z,27.50
2022-10-07T20:22:01.961Z,29.08
2022-10-07T20:24:49.854Z,32.90
2022-10-07T20:27:37.741Z,33.92
2022-10-07T20:30:25.417Z,31.13
2022-10-07T20:33:13.308Z,29.17
2022-10-07T20:36:03.996Z,29.48
2022-10-07T20:39:14.523Z,36.08
2022-10-07T20:42:25.674Z,35.47
2022-10-07T20:45:13.780Z,36.38
2022-10-07T20:48:01.482Z,35.20
2022-10-07T20:50:49.360Z,38.05
2022-10-07T20:53:37.022Z,30.92
2022-10-07T20:56:26.009Z,27.85
2022-10-07T20:59:14.250Z,28.27
2022-10-07T21:02:06.066Z,25.50
2022-10-07T21:04:56.196Z,22.75
2022-10-07T21:07:43.740Z,22.30
2022-10-07T21:10:32.704Z,22.45
2022-10-07T21:13:21.916Z,21.63
2022-10-07T21:16:09.723Z,23.00
2022-10-07T21:18:58.644Z,23.05
2022-10-07T21:21:46.858Z,21.40
2022-10-07T21:24:35.347Z,21.67
2022-10-07T21:27:23.045Z,19.90
2022-10-07T21:30:15.451Z,23.38
2022-10-07T21:33:04.619Z,24.58
2022-10-07T21:35:52.146Z,21.83
2022-10-07T21:38:40.482Z,22.17
